Time;durP1;ratioP1;P1;durP2;ratioP2;P2;SDS_P1;SDS_P2;PMS_P1;PMS_P2;Temp;Humidity;BMP_temperature;BMP_pressure;BME280_temperature;BME280_humidity;BME280_pressure;Samples;Min_cycle;Max_cycle;Signal;HPM_P1;HPM_P2
2022/04/27 00:01:35;;;;;;;2.20;1.40;;;13.90;64.70;;;;;;20540925;28;20054;-82
2022/04/27 00:11:35;;;;;;;1.58;0.85;;;13.90;64.60;;;;;;20567387;28;20034;-83
2022/04/27 00:21:36;;;;;;;2.10;1.30;;;13.90;64.60;;;;;;20533844;28;20031;-84
2022/04/27 00:31:36;;;;;;;2.47;1.10;;;13.90;64.50;;;;;;20549049;28;20039;-83
2022/04/27 00:41:37;;;;;;;2.03;1.23;;;13.90;64.40;;;;;;20532712;28;20121;-81
2022/04/27 00:51:38;;;;;;;1.80;1.05;;;13.90;64.40;;;;;;20581421;28;20177;-84
2022/04/27 01:01:38;;;;;;;3.58;1.20;;;13.80;64.40;;;;;;20514580;28;20116;-82
2022/04/27 01:11:39;;;;;;;1.75;1.20;;;13.90;64.40;;;;;;20531432;28;20393;-83
2022/04/27 01:21:40;;;;;;;1.65;1.10;;;13.80;64.30;;;;;;20530517;28;20070;-82
2022/04/27 01:31:40;;;;;;;1.25;1.05;;;13.80;64.30;;;;;;20544895;28;20038;-81
2022/04/27 01:41:41;;;;;;;1.77;1.10;;;13.80;64.30;;;;;;20561983;28;20125;-82
2022/04/27 02:02:00;;;;;;;2.92;1.65;;;13.80;64.20;;;;;;20549988;28;20041;-83
2022/04/27 02:12:04;;;;;;;2.00;1.35;;;13.80;64.20;;;;;;20561600;28;20042;-81
2022/04/27 02:22:05;;;;;;;1.60;1.20;;;13.70;64.10;;;;;;20558886;28;20042;-83
2022/04/27 02:42:29;;;;;;;1.88;1.10;;;13.80;64.00;;;;;;20834937;23;20051;-84
2022/04/27 02:52:31;;;;;;;1.70;1.00;;;13.70;63.90;;;;;;20559279;28;20405;-84
2022/04/27 03:02:41;;;;;;;1.52;1.17;;;13.70;63.80;;;;;;20544426;28;20035;-84
2022/04/27 03:12:42;;;;;;;2.22;1.48;;;13.70;64.40;;;;;;20578145;28;20485;-84
2022/04/27 03:22:44;;;;;;;1.83;1.35;;;13.70;63.70;;;;;;20634954;28;20042;-86
2022/04/27 03:32:44;;;;;;;2.85;1.40;;;13.60;63.60;;;;;;20603909;28;20037;-82
2022/04/27 03:42:45;;;;;;;2.25;1.40;;;13.70;63.60;;;;;;20650070;28;20085;-80
2022/04/27 03:52:48;;;;;;;1.48;1.05;;;13.70;63.60;;;;;;20600334;28;20042;-78
2022/04/27 04:02:48;;;;;;;1.95;1.35;;;13.60;63.40;;;;;;20615008;28;20100;-78
2022/04/27 04:12:49;;;;;;;2.33;1.10;;;13.60;63.40;;;;;;20614398;28;20113;-77
2022/04/27 04:23:09;;;;;;;2.30;1.70;;;13.60;63.40;;;;;;20635814;28;20062;-77
2022/04/27 04:33:17;;;;;;;1.60;1.15;;;13.60;63.30;;;;;;20629724;28;20066;-78
2022/04/27 04:43:23;;;;;;;3.35;1.25;;;13.60;63.20;;;;;;20599892;28;20038;-76
2022/04/27 04:53:24;;;;;;;1.65;1.25;;;13.60;63.20;;;;;;20595581;28;20051;-78
2022/04/27 05:03:48;;;;;;;1.83;1.10;;;13.60;63.10;;;;;;20642988;28;20045;-79
2022/04/27 05:14:04;;;;;;;2.37;1.63;;;13.50;63.10;;;;;;20588377;28;20035;-80
2022/04/27 05:24:23;;;;;;;2.58;1.52;;;13.50;63.00;;;;;;20631634;28;20042;-83
2022/04/27 05:34:41;;;;;;;2.50;1.50;;;13.60;63.10;;;;;;20601501;28;20046;-82
2022/04/27 05:45:10;;;;;;;1.90;0.98;;;13.50;63.10;;;;;;20613077;28;20065;-81
2022/04/27 05:55:43;;;;;;;2.10;1.48;;;13.50;63.70;;;;;;20631846;28;20057;-81
2022/04/27 06:06:02;;;;;;;4.78;1.67;;;13.50;63.00;;;;;;20644658;28;20070;-81
2022/04/27 06:16:04;;;;;;;2.65;1.25;;;13.50;63.10;;;;;;20626843;28;20081;-81
2022/04/27 06:26:33;;;;;;;3.23;1.33;;;13.50;63.10;;;;;;20644892;28;20097;-82
2022/04/27 06:36:34;;;;;;;3.45;1.58;;;13.60;63.20;;;;;;20571786;28;20039;-78
2022/04/27 06:46:36;;;;;;;1.95;1.30;;;13.60;63.20;;;;;;20544489;28;20547;-78
2022/04/27 06:56:55;;;;;;;1.63;1.05;;;13.60;63.30;;;;;;20579761;28;20039;-78
2022/04/27 07:07:12;;;;;;;2.03;1.40;;;13.60;63.30;;;;;;20574446;28;20039;-78
2022/04/27 07:17:12;;;;;;;1.60;0.90;;;13.60;63.30;;;;;;20493537;29;20097;-78
2022/04/27 07:27:13;;;;;;;4.50;1.40;;;13.60;63.30;;;;;;20508723;28;20417;-78
2022/04/27 07:37:14;;;;;;;2.65;1.45;;;13.70;63.40;;;;;;20492739;28;20114;-79
2022/04/27 07:47:15;;;;;;;3.97;1.50;;;13.70;63.30;;;;;;20493184;29;20046;-79
2022/04/27 07:57:16;;;;;;;2.00;1.15;;;13.70;63.30;;;;;;20474526;29;20291;-79
2022/04/27 08:07:16;;;;;;;1.80;1.02;;;13.70;63.30;;;;;;20489223;29;20071;-79
2022/04/27 08:17:17;;;;;;;1.88;1.00;;;13.70;63.30;;;;;;20504880;29;20114;-79
2022/04/27 08:27:18;;;;;;;1.65;1.23;;;13.80;63.30;;;;;;20490300;29;20038;-77
2022/04/27 08:37:19;;;;;;;3.03;1.67;;;13.80;63.30;;;;;;20546055;28;20035;-79
2022/04/27 08:47:20;;;;;;;1.70;1.13;;;13.80;63.10;;;;;;20531901;28;20473;-78
2022/04/27 08:57:20;;;;;;;1.83;1.08;;;13.80;63.10;;;;;;20547193;28;20117;-78
2022/04/27 09:07:21;;;;;;;1.25;0.80;;;13.90;63.10;;;;;;20514464;28;20097;-79
2022/04/27 09:27:41;;;;;;;3.50;1.10;;;13.90;63.20;;;;;;20563301;28;20038;-79
2022/04/27 09:37:42;;;;;;;1.35;1.00;;;13.90;63.10;;;;;;20528640;28;20047;-79
2022/04/27 09:47:50;;;;;;;2.03;1.02;;;13.90;63.10;;;;;;20549289;28;20565;-79
2022/04/27 09:57:56;;;;;;;2.90;0.80;;;13.90;63.10;;;;;;20544805;28;20049;-79
2022/04/27 10:07:57;;;;;;;4.63;1.60;;;13.90;63.10;;;;;;20543476;28;20039;-78
2022/04/27 10:17:58;;;;;;;2.63;1.48;;;14.00;63.10;;;;;;20574199;28;20286;-77
2022/04/27 10:27:59;;;;;;;2.28;1.48;;;13.90;62.50;;;;;;20557274;28;20473;-79
2022/04/27 10:38:02;;;;;;;4.18;2.13;;;13.90;61.90;;;;;;20524876;28;20050;-79
2022/04/27 10:48:06;;;;;;;3.13;1.90;;;13.90;61.70;;;;;;20540553;28;20039;-78
2022/04/27 10:58:42;;;;;;;1.73;1.30;;;14.00;61.40;;;;;;20538943;28;20042;-79
2022/04/27 11:09:08;;;;;;;1.98;1.33;;;14.00;61.40;;;;;;20571173;28;20042;-78
2022/04/27 11:19:09;;;;;;;1.92;1.23;;;14.00;61.30;;;;;;20553712;28;20109;-78
2022/04/27 11:29:10;;;;;;;1.65;1.30;;;14.00;61.50;;;;;;20570151;28;20034;-79
2022/04/27 11:39:19;;;;;;;5.10;1.58;;;14.00;61.70;;;;;;20536894;28;20067;-78
2022/04/27 11:49:21;;;;;;;2.15;1.38;;;14.00;61.80;;;;;;20551312;28;20045;-81
2022/04/27 11:59:22;;;;;;;2.00;1.10;;;14.00;61.80;;;;;;20551679;28;20047;-77
2022/04/27 12:09:22;;;;;;;1.95;1.40;;;14.00;61.80;;;;;;20565851;28;20121;-77
2022/04/27 12:19:32;;;;;;;5.00;1.58;;;14.00;61.80;;;;;;20581143;28;20042;-77
2022/04/27 12:29:33;;;;;;;1.73;1.42;;;14.00;61.80;;;;;;20569796;28;20042;-86
2022/04/27 12:39:38;;;;;;;3.88;1.50;;;14.00;61.90;;;;;;20571216;28;20050;-75
2022/04/27 12:49:40;;;;;;;2.03;1.52;;;14.00;61.90;;;;;;20561341;28;20042;-79
2022/04/27 12:59:56;;;;;;;2.40;1.45;;;14.10;62.00;;;;;;20528224;28;20034;-78
2022/04/27 13:20:16;;;;;;;2.95;1.48;;;14.10;62.00;;;;;;20556073;28;20047;-78
2022/04/27 13:30:16;;;;;;;3.38;1.63;;;14.20;61.90;;;;;;20529085;28;20050;-76
2022/04/27 13:40:17;;;;;;;2.85;1.60;;;14.20;61.90;;;;;;20541052;28;20046;-75
2022/04/27 13:50:18;;;;;;;4.20;2.65;;;14.20;61.80;;;;;;20528992;28;20039;-74
2022/04/27 14:00:18;;;;;;;3.73;1.90;;;14.20;61.80;;;;;;20543341;28;20125;-73
2022/04/27 14:10:19;;;;;;;3.20;1.88;;;14.30;61.70;;;;;;20510879;28;20345;-73
2022/04/27 14:20:19;;;;;;;6.20;2.33;;;14.30;61.50;;;;;;20543867;28;20042;-81
2022/04/27 14:30:20;;;;;;;4.47;2.40;;;14.40;61.30;;;;;;20549876;28;20034;-72
2022/04/27 14:40:21;;;;;;;5.75;2.30;;;14.50;61.00;;;;;;20555115;28;20075;-73
2022/04/27 14:50:21;;;;;;;4.30;1.97;;;14.60;60.80;;;;;;20571781;28;20050;-73
2022/04/27 15:00:25;;;;;;;4.47;1.90;;;14.70;60.80;;;;;;20569443;28;20369;-79
2022/04/27 15:10:25;;;;;;;9.27;2.08;;;14.70;60.60;;;;;;20538744;28;20293;-80
2022/04/27 15:30:45;;;;;;;4.95;1.95;;;14.90;59.60;;;;;;20557716;28;20078;-79
2022/04/27 15:40:46;;;;;;;3.47;1.75;;;14.90;59.50;;;;;;20558505;28;20473;-79
2022/04/27 15:50:46;;;;;;;2.85;1.55;;;14.90;59.60;;;;;;20557707;28;20062;-77
2022/04/27 16:00:48;;;;;;;2.10;1.45;;;15.00;59.50;;;;;;20509739;28;20039;-77
2022/04/27 16:10:48;;;;;;;2.15;1.50;;;15.10;59.40;;;;;;20472846;29;20102;-75
2022/04/27 16:31:08;;;;;;;2.65;2.40;;;15.20;59.10;;;;;;20492609;29;20066;-80
2022/04/27 16:41:09;;;;;;;2.63;1.48;;;15.30;59.10;;;;;;20474741;29;20032;-86
2022/04/27 16:51:09;;;;;;;3.33;1.70;;;15.30;59.10;;;;;;20469144;29;20482;-76
2022/04/27 17:01:10;;;;;;;3.83;1.83;;;15.30;59.00;;;;;;20466729;28;20039;-78
2022/04/27 17:11:11;;;;;;;6.20;1.70;;;15.30;59.10;;;;;;20496482;29;20065;-77
2022/04/27 17:21:12;;;;;;;3.28;1.90;;;15.20;59.00;;;;;;20482404;29;20286;-76
2022/04/27 17:31:13;;;;;;;2.92;1.63;;;15.20;58.90;;;;;;20491128;29;20043;-79
2022/04/27 17:41:15;;;;;;;2.72;1.70;;;15.20;59.00;;;;;;20533257;28;20047;-78
2022/04/27 17:51:15;;;;;;;3.42;1.92;;;15.20;59.10;;;;;;20543467;28;20027;-78
2022/04/27 18:01:17;;;;;;;2.60;1.50;;;15.10;59.20;;;;;;20542179;28;20517;-78
2022/04/27 18:11:17;;;;;;;4.03;1.63;;;15.10;59.40;;;;;;20550512;28;20041;-75
2022/04/27 18:21:18;;;;;;;2.15;1.30;;;15.00;59.50;;;;;;20525129;28;20043;-72
2022/04/27 18:31:18;;;;;;;1.95;1.25;;;15.00;59.60;;;;;;20555977;28;20569;-73
2022/04/27 18:41:19;;;;;;;2.70;1.52;;;14.90;59.70;;;;;;20540128;28;20039;-73
2022/04/27 18:51:21;;;;;;;3.15;1.55;;;14.90;60.40;;;;;;20538359;28;20051;-73
2022/04/27 19:01:21;;;;;;;3.47;1.42;;;14.90;59.90;;;;;;20553106;28;20066;-73
2022/04/27 19:11:22;;;;;;;2.72;1.70;;;14.80;60.00;;;;;;20554053;28;20114;-73
2022/04/27 19:21:22;;;;;;;2.40;1.43;;;14.80;60.10;;;;;;20534986;28;20544;-73
2022/04/27 19:31:23;;;;;;;2.70;1.55;;;14.70;60.30;;;;;;20535463;28;20382;-72
2022/04/27 19:41:24;;;;;;;2.97;1.40;;;14.70;60.40;;;;;;20550036;28;20097;-73
2022/04/27 19:51:25;;;;;;;2.22;1.50;;;14.70;60.50;;;;;;20568400;28;20039;-72
2022/04/27 20:01:27;;;;;;;2.45;1.27;;;14.70;60.60;;;;;;20534624;28;20046;-72
2022/04/27 20:11:28;;;;;;;2.17;1.33;;;14.70;60.70;;;;;;20549454;28;20038;-72
2022/04/27 20:21:29;;;;;;;3.65;1.40;;;14.60;60.70;;;;;;20533900;28;20040;-72
2022/04/27 20:31:30;;;;;;;1.67;1.00;;;14.60;60.80;;;;;;20533187;28;20034;-73
2022/04/27 20:41:32;;;;;;;2.58;1.38;;;14.60;60.80;;;;;;20563860;28;20070;-72
2022/04/27 20:51:33;;;;;;;2.08;1.30;;;14.60;60.80;;;;;;20531369;28;20038;-72
2022/04/27 21:01:34;;;;;;;4.15;1.42;;;14.60;60.90;;;;;;20563717;28;20070;-72
2022/04/27 21:11:35;;;;;;;1.20;1.10;;;14.50;60.80;;;;;;20530325;28;20121;-72
2022/04/27 21:21:40;;;;;;;2.15;1.42;;;14.60;60.90;;;;;;20514420;28;20101;-72
2022/04/27 21:31:40;;;;;;;1.27;0.98;;;14.50;60.80;;;;;;20531690;28;20065;-72
2022/04/27 21:41:41;;;;;;;2.40;1.25;;;14.60;60.80;;;;;;20564021;28;20031;-71
2022/04/27 21:51:42;;;;;;;2.88;1.27;;;14.50;60.70;;;;;;20545383;28;20158;-73
2022/04/27 22:01:42;;;;;;;3.28;1.15;;;14.50;60.80;;;;;;20559501;28;20122;-72
2022/04/27 22:11:43;;;;;;;3.65;1.20;;;14.50;60.70;;;;;;20543224;28;20569;-72
2022/04/27 22:21:44;;;;;;;2.22;1.40;;;14.50;60.80;;;;;;20575442;28;20038;-72
2022/04/27 22:31:44;;;;;;;1.83;1.00;;;14.50;60.70;;;;;;20558674;28;20038;-72
2022/04/27 22:41:45;;;;;;;2.25;1.40;;;14.40;60.70;;;;;;20557426;28;20058;-72
2022/04/27 22:51:45;;;;;;;3.13;1.85;;;14.40;60.70;;;;;;20555163;28;20070;-72
2022/04/27 23:01:47;;;;;;;3.10;1.65;;;14.40;60.70;;;;;;20637809;28;20042;-72
2022/04/27 23:11:47;;;;;;;1.55;1.27;;;14.40;60.70;;;;;;20603996;28;20133;-72
2022/04/27 23:21:48;;;;;;;1.52;1.15;;;14.40;60.60;;;;;;20669391;28;20468;-72
2022/04/27 23:31:49;;;;;;;1.83;1.42;;;14.40;60.60;;;;;;20633719;28;20043;-72
2022/04/27 23:41:49;;;;;;;3.42;1.42;;;14.40;60.60;;;;;;20633012;28;20477;-72
2022/04/27 23:51:50;;;;;;;2.97;1.65;;;14.40;60.50;;;;;;20648166;28;20117;-72
